SDM6251 ULLI-UWKD
Flight info
| Callsign | SDM6251 |
|---|---|
| Flight time | N/A |
| Altitude | 39000 |
| Route | SUGIN1B SUGIN T873 NIRGI T73 DESUD P164 ROKUR T784 ADMUL L94 UNORO T788 KOROM KOROM1R |
| Aircraft | B77W/H-SDE1E2E3FGHIJ2J3J4J5M1RWXY/LB1D1 |
Departure
| Time | N/A |
|---|---|
| Airport | Pulkovo Airport (ULLI) |
Arrival
| Time | 2026-05-01 10:53 |
|---|---|
| Airport | Kazan International Airport (UWKD) |
| Time | Latitude | Longitude | Altitude | Speed | Heading |
|---|---|---|---|---|---|
| 2026-05-01 09:38 | 58.43437 | 34.16987 | 35202 ft | 507 kts | 130° |
| 2026-05-01 09:39 | 58.35722 | 34.30772 | 35217 ft | 507 kts | 130° |
| 2026-05-01 09:39 | 58.30568 | 34.39933 | 35209 ft | 507 kts | 130° |
| 2026-05-01 09:40 | 58.22816 | 34.53643 | 35204 ft | 507 kts | 130° |
| 2026-05-01 09:41 | 58.17594 | 34.62651 | 35208 ft | 509 kts | 132° |
| 2026-05-01 09:41 | 58.09366 | 34.75484 | 35207 ft | 512 kts | 133° |
| 2026-05-01 09:42 | 58.03864 | 34.84024 | 35208 ft | 511 kts | 133° |
| 2026-05-01 09:43 | 57.92934 | 35.01129 | 35206 ft | 511 kts | 133° |
| 2026-05-01 09:43 | 57.87461 | 35.09647 | 35210 ft | 511 kts | 133° |
| 2026-05-01 09:44 | 57.79250 | 35.22356 | 35203 ft | 510 kts | 133° |
| 2026-05-01 09:45 | 57.73762 | 35.30807 | 35200 ft | 510 kts | 133° |
| 2026-05-01 09:45 | 57.65542 | 35.43407 | 35238 ft | 509 kts | 133° |
| 2026-05-01 09:46 | 57.60789 | 35.52801 | 35214 ft | 489 kts | 116° |
| 2026-05-01 09:46 | 57.57720 | 35.63707 | 35203 ft | 470 kts | 101° |
| 2026-05-01 09:47 | 57.55552 | 35.75134 | 35186 ft | 469 kts | 101° |
| 2026-05-01 09:47 | 57.53320 | 35.86576 | 35210 ft | 470 kts | 102° |
| 2026-05-01 09:48 | 57.51036 | 35.97998 | 35204 ft | 472 kts | 103° |
| 2026-05-01 09:48 | 57.48727 | 36.09454 | 35202 ft | 474 kts | 103° |
| 2026-05-01 09:49 | 57.46421 | 36.20921 | 35195 ft | 474 kts | 103° |
| 2026-05-01 09:49 | 57.44112 | 36.32393 | 35195 ft | 474 kts | 103° |
| 2026-05-01 09:50 | 57.41788 | 36.43870 | 35195 ft | 475 kts | 103° |
| 2026-05-01 09:50 | 57.39453 | 36.55332 | 35200 ft | 476 kts | 104° |
| 2026-05-01 09:51 | 57.37108 | 36.66779 | 35192 ft | 477 kts | 104° |
| 2026-05-01 09:51 | 57.34736 | 36.78283 | 35192 ft | 477 kts | 104° |
| 2026-05-01 09:52 | 57.32361 | 36.89736 | 35185 ft | 477 kts | 104° |
| 2026-05-01 09:52 | 57.29977 | 37.01173 | 35182 ft | 477 kts | 105° |
| 2026-05-01 09:53 | 57.27580 | 37.12612 | 35184 ft | 477 kts | 105° |
| 2026-05-01 09:53 | 57.25169 | 37.24047 | 35182 ft | 478 kts | 105° |
| 2026-05-01 09:54 | 57.22749 | 37.35459 | 35180 ft | 477 kts | 105° |
| 2026-05-01 09:54 | 57.20321 | 37.46852 | 35177 ft | 477 kts | 105° |
| 2026-05-01 09:55 | 57.17881 | 37.58247 | 35172 ft | 477 kts | 106° |
| 2026-05-01 09:55 | 57.15724 | 37.69744 | 35182 ft | 472 kts | 99° |
| 2026-05-01 09:56 | 57.14072 | 37.81431 | 35180 ft | 471 kts | 99° |
| 2026-05-01 09:56 | 57.12416 | 37.93115 | 35178 ft | 472 kts | 99° |
| 2026-05-01 09:57 | 57.10726 | 38.04786 | 35176 ft | 472 kts | 99° |
| 2026-05-01 09:57 | 57.09014 | 38.16445 | 35193 ft | 472 kts | 100° |
| 2026-05-01 09:58 | 57.07287 | 38.28105 | 35185 ft | 473 kts | 100° |
| 2026-05-01 09:58 | 57.05549 | 38.39757 | 35174 ft | 473 kts | 100° |
| 2026-05-01 09:59 | 57.03801 | 38.51395 | 35176 ft | 473 kts | 100° |
| 2026-05-01 09:59 | 57.02042 | 38.63024 | 35178 ft | 472 kts | 100° |
| 2026-05-01 10:00 | 57.00275 | 38.74632 | 35188 ft | 472 kts | 101° |
| 2026-05-01 10:00 | 56.98495 | 38.86241 | 35188 ft | 473 kts | 101° |
| 2026-05-01 10:01 | 56.96701 | 38.97863 | 35187 ft | 474 kts | 101° |
| 2026-05-01 10:01 | 56.94894 | 39.09486 | 35181 ft | 474 kts | 101° |
| 2026-05-01 10:02 | 56.93075 | 39.21100 | 35181 ft | 474 kts | 101° |
| 2026-05-01 10:02 | 56.91245 | 39.32706 | 35181 ft | 475 kts | 101° |
| 2026-05-01 10:03 | 56.89404 | 39.44307 | 35198 ft | 475 kts | 101° |
| 2026-05-01 10:03 | 56.87549 | 39.55915 | 35190 ft | 476 kts | 102° |
| 2026-05-01 10:04 | 56.85684 | 39.67512 | 35197 ft | 476 kts | 102° |
| 2026-05-01 10:04 | 56.83821 | 39.79020 | 35195 ft | 475 kts | 102° |
| 2026-05-01 10:05 | 56.81935 | 39.90599 | 35199 ft | 475 kts | 102° |
| 2026-05-01 10:05 | 56.80045 | 40.02163 | 35211 ft | 476 kts | 102° |
| 2026-05-01 10:06 | 56.78146 | 40.13740 | 35201 ft | 477 kts | 102° |
| 2026-05-01 10:06 | 56.76234 | 40.25320 | 35203 ft | 477 kts | 102° |
| 2026-05-01 10:07 | 56.74311 | 40.36892 | 35205 ft | 477 kts | 103° |
| 2026-05-01 10:07 | 56.72375 | 40.48465 | 35202 ft | 477 kts | 103° |
| 2026-05-01 10:08 | 56.69448 | 40.65821 | 35201 ft | 479 kts | 103° |
| 2026-05-01 10:09 | 56.67477 | 40.77414 | 35202 ft | 481 kts | 103° |
| 2026-05-01 10:09 | 56.65490 | 40.89029 | 35203 ft | 481 kts | 104° |
| 2026-05-01 10:10 | 56.63490 | 41.00645 | 35196 ft | 482 kts | 104° |
| 2026-05-01 10:10 | 56.59075 | 41.17151 | 35206 ft | 491 kts | 121° |
| 2026-05-01 10:11 | 56.54965 | 41.27102 | 35195 ft | 493 kts | 124° |
| 2026-05-01 10:11 | 56.50790 | 41.36958 | 35199 ft | 493 kts | 124° |
| 2026-05-01 10:12 | 56.47337 | 41.45169 | 35195 ft | 493 kts | 124° |
| 2026-05-01 10:13 | 56.40423 | 41.61662 | 35206 ft | 494 kts | 124° |
| 2026-05-01 10:13 | 56.36266 | 41.71529 | 35193 ft | 494 kts | 125° |
| 2026-05-01 10:14 | 56.30011 | 41.86291 | 35187 ft | 494 kts | 125° |
| 2026-05-01 10:14 | 56.25830 | 41.96114 | 35190 ft | 494 kts | 125° |
| 2026-05-01 10:15 | 56.21768 | 42.05961 | 35194 ft | 492 kts | 118° |
| 2026-05-01 10:15 | 56.19222 | 42.17239 | 35201 ft | 486 kts | 102° |
| 2026-05-01 10:16 | 56.18385 | 42.29222 | 35201 ft | 484 kts | 92° |
| 2026-05-01 10:17 | 56.17521 | 42.47293 | 35190 ft | 485 kts | 93° |
| 2026-05-01 10:17 | 56.16528 | 42.65367 | 35183 ft | 487 kts | 94° |
| 2026-05-01 10:18 | 56.15480 | 42.83541 | 35182 ft | 489 kts | 95° |
| 2026-05-01 10:19 | 56.14769 | 42.95687 | 35176 ft | 490 kts | 95° |
| 2026-05-01 10:19 | 56.14168 | 43.05799 | 35168 ft | 491 kts | 95° |
| 2026-05-01 10:20 | 56.13135 | 43.24055 | 35163 ft | 490 kts | 91° |
| 2026-05-01 10:20 | 56.13017 | 43.36239 | 35160 ft | 489 kts | 89° |
| 2026-05-01 10:21 | 56.12906 | 43.54524 | 35161 ft | 489 kts | 89° |
| 2026-05-01 10:22 | 56.12718 | 43.72793 | 35156 ft | 489 kts | 90° |
| 2026-05-01 10:23 | 56.12491 | 43.91045 | 35157 ft | 488 kts | 90° |
| 2026-05-01 10:23 | 56.12240 | 44.09303 | 35158 ft | 489 kts | 90° |
| 2026-05-01 10:24 | 56.11863 | 44.33731 | 35146 ft | 491 kts | 91° |
| 2026-05-01 10:25 | 56.11439 | 44.58199 | 35146 ft | 491 kts | 90° |
| 2026-05-01 10:26 | 56.11209 | 44.70440 | 35128 ft | 491 kts | 91° |
| 2026-05-01 10:27 | 56.10730 | 44.94915 | 35144 ft | 492 kts | 91° |
| 2026-05-01 10:28 | 56.10322 | 45.13316 | 35135 ft | 494 kts | 91° |
| 2026-05-01 10:28 | 56.09870 | 45.31759 | 35114 ft | 494 kts | 91° |
| 2026-05-01 10:29 | 56.09397 | 45.50200 | 35126 ft | 494 kts | 92° |
| 2026-05-01 10:30 | 56.08725 | 45.74785 | 35128 ft | 496 kts | 92° |
| 2026-05-01 10:31 | 56.07999 | 45.99476 | 35128 ft | 497 kts | 92° |
| 2026-05-01 10:32 | 56.07426 | 46.17897 | 35114 ft | 495 kts | 92° |
| 2026-05-01 10:33 | 56.06623 | 46.42415 | 35112 ft | 493 kts | 93° |
| 2026-05-01 10:33 | 56.05573 | 46.54525 | 35121 ft | 494 kts | 104° |
| 2026-05-01 10:34 | 56.04572 | 46.60403 | 35115 ft | 495 kts | 110° |
| 2026-05-01 10:34 | 56.02071 | 46.71895 | 35120 ft | 496 kts | 111° |
| 2026-05-01 10:35 | 55.99502 | 46.83604 | 33474 ft | 509 kts | 111° |
| 2026-05-01 10:35 | 55.98227 | 46.89494 | 32408 ft | 508 kts | 111° |
| 2026-05-01 10:35 | 55.96960 | 46.95367 | 31381 ft | 506 kts | 111° |
| 2026-05-01 10:35 | 55.95699 | 47.01218 | 30365 ft | 504 kts | 111° |
| 2026-05-01 10:36 | 55.93218 | 47.12664 | 28821 ft | 485 kts | 112° |
| 2026-05-01 10:36 | 55.92025 | 47.18138 | 28039 ft | 457 kts | 112° |
| 2026-05-01 10:36 | 55.90896 | 47.23306 | 26572 ft | 439 kts | 112° |
| 2026-05-01 10:37 | 55.89804 | 47.28292 | 25023 ft | 427 kts | 113° |
| 2026-05-01 10:37 | 55.87687 | 47.37917 | 21684 ft | 407 kts | 113° |
| 2026-05-01 10:37 | 55.86661 | 47.42563 | 20017 ft | 399 kts | 112° |
| 2026-05-01 10:38 | 55.85641 | 47.47172 | 18660 ft | 407 kts | 112° |
| 2026-05-01 10:38 | 55.84606 | 47.51838 | 18004 ft | 402 kts | 112° |
| 2026-05-01 10:38 | 55.83585 | 47.56440 | 17345 ft | 397 kts | 111° |
| 2026-05-01 10:38 | 55.82578 | 47.60968 | 16746 ft | 391 kts | 111° |
| 2026-05-01 10:39 | 55.81582 | 47.65438 | 16155 ft | 386 kts | 112° |
| 2026-05-01 10:39 | 55.80596 | 47.69858 | 15558 ft | 383 kts | 112° |
| 2026-05-01 10:39 | 55.79619 | 47.74229 | 14994 ft | 379 kts | 112° |
| 2026-05-01 10:39 | 55.78646 | 47.78564 | 14398 ft | 376 kts | 112° |
| 2026-05-01 10:40 | 55.77679 | 47.82861 | 13822 ft | 373 kts | 112° |
| 2026-05-01 10:40 | 55.76713 | 47.87122 | 13198 ft | 370 kts | 112° |
| 2026-05-01 10:40 | 55.75754 | 47.91330 | 12626 ft | 366 kts | 112° |
| 2026-05-01 10:40 | 55.74803 | 47.95494 | 12075 ft | 362 kts | 112° |
| 2026-05-01 10:41 | 55.73862 | 47.99614 | 11501 ft | 359 kts | 112° |
| 2026-05-01 10:41 | 55.72927 | 48.03698 | 10969 ft | 356 kts | 111° |
| 2026-05-01 10:41 | 55.71142 | 48.11477 | 10655 ft | 330 kts | 110° |
| 2026-05-01 10:42 | 55.70292 | 48.15173 | 10527 ft | 318 kts | 110° |
| 2026-05-01 10:42 | 55.69472 | 48.18733 | 10380 ft | 307 kts | 111° |
| 2026-05-01 10:42 | 55.68676 | 48.22184 | 10271 ft | 296 kts | 110° |
| 2026-05-01 10:42 | 55.67908 | 48.25515 | 10168 ft | 289 kts | 110° |
| 2026-05-01 10:43 | 55.67153 | 48.28783 | 9951 ft | 286 kts | 111° |
| 2026-05-01 10:43 | 55.66628 | 48.32098 | 9539 ft | 277 kts | 89° |
| 2026-05-01 10:43 | 55.66827 | 48.35424 | 9221 ft | 269 kts | 79° |
| 2026-05-01 10:43 | 55.67107 | 48.38674 | 8945 ft | 266 kts | 80° |
| 2026-05-01 10:44 | 55.67364 | 48.41894 | 8673 ft | 263 kts | 80° |
| 2026-05-01 10:44 | 55.67605 | 48.45094 | 8386 ft | 261 kts | 81° |
| 2026-05-01 10:44 | 55.67836 | 48.48281 | 8090 ft | 260 kts | 82° |
| 2026-05-01 10:44 | 55.68060 | 48.51464 | 7772 ft | 260 kts | 81° |
| 2026-05-01 10:45 | 55.68277 | 48.54637 | 7456 ft | 259 kts | 81° |
| 2026-05-01 10:45 | 55.68490 | 48.57805 | 7180 ft | 258 kts | 81° |
| 2026-05-01 10:45 | 55.68700 | 48.60973 | 6879 ft | 257 kts | 82° |
| 2026-05-01 10:45 | 55.68907 | 48.64126 | 6584 ft | 257 kts | 82° |
| 2026-05-01 10:46 | 55.69111 | 48.67266 | 6305 ft | 256 kts | 82° |
| 2026-05-01 10:46 | 55.69314 | 48.70395 | 6003 ft | 255 kts | 81° |
| 2026-05-01 10:46 | 55.69511 | 48.73470 | 5735 ft | 253 kts | 82° |
| 2026-05-01 10:46 | 55.69710 | 48.76571 | 5438 ft | 252 kts | 82° |
| 2026-05-01 10:47 | 55.69906 | 48.79659 | 5193 ft | 250 kts | 82° |
| 2026-05-01 10:47 | 55.70098 | 48.82698 | 5140 ft | 245 kts | 82° |
| 2026-05-01 10:47 | 55.70290 | 48.85703 | 5085 ft | 247 kts | 82° |
| 2026-05-01 10:47 | 55.70483 | 48.88746 | 4959 ft | 249 kts | 82° |
| 2026-05-01 10:48 | 55.70674 | 48.91799 | 4694 ft | 249 kts | 82° |
| 2026-05-01 10:48 | 55.70861 | 48.94820 | 4540 ft | 243 kts | 82° |
| 2026-05-01 10:48 | 55.71040 | 48.97740 | 4452 ft | 233 kts | 83° |
| 2026-05-01 10:48 | 55.70899 | 49.00502 | 4326 ft | 224 kts | 111° |
| 2026-05-01 10:49 | 55.70180 | 49.02848 | 4228 ft | 211 kts | 118° |
| 2026-05-01 10:49 | 55.69435 | 49.05032 | 4129 ft | 202 kts | 121° |
| 2026-05-01 10:49 | 55.68670 | 49.07066 | 3988 ft | 194 kts | 122° |
| 2026-05-01 10:49 | 55.67929 | 49.08986 | 3885 ft | 185 kts | 122° |
| 2026-05-01 10:50 | 55.67214 | 49.10839 | 3694 ft | 180 kts | 122° |
| 2026-05-01 10:50 | 55.66510 | 49.12662 | 3450 ft | 179 kts | 122° |
| 2026-05-01 10:50 | 55.65809 | 49.14473 | 3172 ft | 177 kts | 122° |
| 2026-05-01 10:50 | 55.65103 | 49.16219 | 2805 ft | 172 kts | 123° |
| 2026-05-01 10:51 | 55.64431 | 49.17946 | 2403 ft | 169 kts | 122° |
| 2026-05-01 10:51 | 55.63801 | 49.19673 | 1932 ft | 164 kts | 119° |
| 2026-05-01 10:51 | 55.63162 | 49.21371 | 1561 ft | 170 kts | 124° |
| 2026-05-01 10:51 | 55.62484 | 49.23047 | 1124 ft | 163 kts | 122° |
| 2026-05-01 10:52 | 55.61855 | 49.24725 | 503 ft | 160 kts | 126° |
| 2026-05-01 10:52 | 55.61269 | 49.26194 | 408 ft | 133 kts | 124° |
| 2026-05-01 10:52 | 55.60815 | 49.27376 | 408 ft | 98 kts | 125° |
| 2026-05-01 10:52 | 55.60505 | 49.28194 | 405 ft | 58 kts | 124° |
| 2026-05-01 10:53 | 55.60393 | 49.28475 | 408 ft | 17 kts | 124° |
| 2026-05-01 10:53 | 55.60430 | 49.28621 | 411 ft | 15 kts | 34° |
| 2026-05-01 10:53 | 55.60519 | 49.28728 | 408 ft | 16 kts | 33° |
| 2026-05-01 10:53 | 55.60581 | 49.28850 | 405 ft | 13 kts | 82° |
| 2026-05-01 10:54 | 55.60577 | 49.29011 | 412 ft | 14 kts | 93° |
| 2026-05-01 10:54 | 55.60572 | 49.29180 | 405 ft | 14 kts | 85° |
| 2026-05-01 10:54 | 55.60628 | 49.29318 | 407 ft | 15 kts | 31° |
| 2026-05-01 10:54 | 55.60721 | 49.29363 | 408 ft | 12 kts | 39° |
| 2026-05-01 10:55 | 55.60705 | 49.29469 | 403 ft | 10 kts | 120° |
| 2026-05-01 10:55 | 55.60699 | 49.29583 | 408 ft | 10 kts | 62° |
| 2026-05-01 10:55 | 55.60733 | 49.29681 | 405 ft | 10 kts | 96° |
| 2026-05-01 10:55 | 55.60694 | 49.29790 | 404 ft | 11 kts | 125° |
| 2026-05-01 10:56 | 55.60648 | 49.29907 | 403 ft | 12 kts | 124° |
| 2026-05-01 10:56 | 55.60598 | 49.30036 | 410 ft | 13 kts | 124° |
| 2026-05-01 10:56 | 55.60522 | 49.30080 | 406 ft | 13 kts | 206° |
| 2026-05-01 10:56 | 55.60447 | 49.29986 | 406 ft | 9 kts | 224° |
| 2026-05-01 10:57 | 55.60436 | 49.29925 | 405 ft | 6 kts | 269° |
| 2026-05-01 10:57 | 55.60445 | 49.29852 | 405 ft | 7 kts | 298° |
| 2026-05-01 10:57 | 55.60468 | 49.29796 | 404 ft | 0 kts | 306° |